Saint Benedict, Louisiana
Current Conditions -  °F | °C
As of 12:53 PM on Monday 22 Dec 2014 (Local Time) from KASD Reporting Station
Broken Clouds Broken Clouds  
Wind Chill: 72°   Ceiling: 2800
Heat Index: 72°   Visibility: 10mi
Dew Point: 65°   Wind: 8mph
Humidity: 78%   Direction: 190°S
Pressure: 29.74"   Gusts: NA
Location:  30.53°N, 90.11°W
Report Text: KASD 221853Z AUTO 19007KT 10SM FEW012 SCT020 BKN028 22/18 A2974 RMK AO2 SLP071 T02220183
Loading
Personal Weather Stations






























Interactive Weather Map New forecast layout! Learn more

10-Day Weather Forecast

Advertisements
Track Severe Weather on mobile